Time;durP1;ratioP1;P1;durP2;ratioP2;P2;SDS_P1;SDS_P2;PMS_P1;PMS_P2;Temp;Humidity;BMP_temperature;BMP_pressure;BME280_temperature;BME280_humidity;BME280_pressure;Samples;Min_cycle;Max_cycle;Signal;HPM_P1;HPM_P2
2023/05/01 00:00:20;;;;;;;;;;;;;;;7.52;100.00;99629.06;5034964;28;871;-63
2023/05/01 00:02:46;;;;;;;;;;;;;;;7.54;100.00;99636.94;5035234;28;826;-63
2023/05/01 00:05:13;;;;;;;;;;;;;;;7.39;100.00;99633.34;5034387;28;1949;-64
2023/05/01 00:07:40;;;;;;;;;;;;;;;7.28;100.00;99630.53;5034546;28;831;-64
2023/05/01 00:10:07;;;;;;;;;;;;;;;7.12;100.00;99630.03;5034288;28;1198;-63
2023/05/01 00:12:34;;;;;;;;;;;;;;;7.03;100.00;99638.59;5034386;28;807;-62
2023/05/01 00:15:01;;;;;;;;;;;;;;;7.03;100.00;99640.56;5034343;28;894;-62
2023/05/01 00:17:29;;;;;;;;;;;;;;;7.07;100.00;99644.94;5034529;28;882;-63
2023/05/01 00:19:56;;;;;;;;;;;;;;;7.10;100.00;99641.41;5034412;28;861;-63
2023/05/01 00:22:23;;;;;;;;;;;;;;;7.20;100.00;99641.88;5034950;28;783;-62
2023/05/01 00:24:50;;;;;;;;;;;;;;;7.40;100.00;99636.88;5034809;28;843;-64
2023/05/01 00:27:17;;;;;;;;;;;;;;;7.54;100.00;99637.72;5034731;28;1906;-63
2023/05/01 00:29:44;;;;;;;;;;;;;;;7.54;100.00;99645.19;5034688;28;838;-63
2023/05/01 00:32:11;;;;;;;;;;;;;;;7.46;100.00;99647.09;5034137;28;1452;-64
2023/05/01 00:34:38;;;;;;;;;;;;;;;7.43;100.00;99650.63;5034636;28;763;-64
2023/05/01 00:37:06;;;;;;;;;;;;;;;7.50;100.00;99645.16;5034045;28;818;-63
2023/05/01 00:39:33;;;;;;;;;;;;;;;7.84;100.00;99649.66;5034118;28;874;-63
2023/05/01 00:42:01;;;;;;;;;;;;;;;8.05;100.00;99651.69;5034226;28;847;-63
2023/05/01 00:44:27;;;;;;;;;;;;;;;8.10;100.00;99648.53;5034188;28;917;-63
2023/05/01 00:46:55;;;;;;;;;;;;;;;8.11;100.00;99658.38;5033928;28;1882;-64
2023/05/01 00:49:22;;;;;;;;;;;;;;;8.10;100.00;99649.31;5034026;28;862;-64
2023/05/01 00:51:51;;;;;;;;;;;;;;;8.06;100.00;99658.75;5033869;28;834;-64
2023/05/01 00:54:19;;;;;;;;;;;;;;;7.99;100.00;99654.00;5033622;28;815;-64
2023/05/01 00:56:47;;;;;;;;;;;;;;;7.87;100.00;99646.09;5033576;28;848;-64
2023/05/01 00:59:13;;;;;;;;;;;;;;;7.70;100.00;99647.59;5033584;28;842;-64
2023/05/01 01:01:43;;;;;;;;;;;;;;;7.55;100.00;99653.06;5033615;28;882;-64
2023/05/01 01:04:10;;;;;;;;;;;;;;;7.41;100.00;99650.22;5033395;28;866;-64
2023/05/01 01:06:44;;;;;;;;;;;;;;;7.29;100.00;99647.81;5033571;28;1968;-62
2023/05/01 01:09:17;;;;;;;;;;;;;;;7.17;100.00;99651.66;5033446;28;1083;-63
2023/05/01 01:11:56;;;;;;;;;;;;;;;7.16;100.00;99653.63;5033170;28;1248;-64
2023/05/01 01:14:39;;;;;;;;;;;;;;;7.11;100.00;99653.97;5033326;28;913;-64
2023/05/01 01:17:12;;;;;;;;;;;;;;;7.08;100.00;99657.50;5033312;28;830;-63
2023/05/01 01:19:46;;;;;;;;;;;;;;;7.03;100.00;99659.81;5033197;28;854;-63
2023/05/01 01:22:15;;;;;;;;;;;;;;;7.11;100.00;99664.97;5033121;28;894;-64
2023/05/01 01:24:41;;;;;;;;;;;;;;;7.21;100.00;99660.72;5015476;28;815;-62
2023/05/01 01:27:28;;;;;;;;;;;;;;;7.22;100.00;99661.50;5032965;28;1906;-62
2023/05/01 01:30:14;;;;;;;;;;;;;;;7.14;100.00;99655.94;5032807;28;1735;-63
2023/05/01 01:32:50;;;;;;;;;;;;;;;7.13;100.00;99665.38;5032877;28;854;-64
2023/05/01 01:35:23;;;;;;;;;;;;;;;7.12;100.00;99665.75;5032965;28;846;-64
2023/05/01 01:37:55;;;;;;;;;;;;;;;7.21;100.00;99662.66;5032821;28;911;-63
2023/05/01 01:40:25;;;;;;;;;;;;;;;7.34;100.00;99658.44;5032752;28;794;-63
2023/05/01 01:42:51;;;;;;;;;;;;;;;7.32;100.00;99663.56;5032752;28;846;-63
2023/05/01 01:45:25;;;;;;;;;;;;;;;7.51;100.00;99663.25;5032783;28;1894;-64
2023/05/01 01:47:53;;;;;;;;;;;;;;;7.75;100.00;99669.25;5032714;28;822;-62
2023/05/01 01:50:23;;;;;;;;;;;;;;;7.86;100.00;99661.06;5032641;28;846;-63
2023/05/01 01:52:50;;;;;;;;;;;;;;;7.87;100.00;99655.16;5032468;28;1071;-63
2023/05/01 01:55:20;;;;;;;;;;;;;;;7.94;100.00;99657.16;5032462;28;814;-64
2023/05/01 01:57:49;;;;;;;;;;;;;;;8.02;100.00;99660.69;5032385;28;850;-64
2023/05/01 02:00:16;;;;;;;;;;;;;;;8.09;100.00;99656.00;5032410;28;862;-64
2023/05/01 02:02:45;;;;;;;;;;;;;;;8.16;100.00;99669.00;5032625;28;798;-65
2023/05/01 02:05:14;;;;;;;;;;;;;;;8.22;100.00;99663.91;5032277;28;2147;-64
2023/05/01 02:07:41;;;;;;;;;;;;;;;8.22;100.00;99663.91;5032218;28;826;-63
2023/05/01 02:10:10;;;;;;;;;;;;;;;8.24;100.00;99667.84;5032040;28;1348;-63
2023/05/01 02:12:37;;;;;;;;;;;;;;;8.17;100.00;99668.63;5032167;28;822;-63
2023/05/01 02:15:05;;;;;;;;;;;;;;;8.04;100.00;99667.38;5032393;28;827;-63
2023/05/01 02:17:32;;;;;;;;;;;;;;;8.05;100.00;99668.19;5032451;28;795;-63
2023/05/01 02:19:59;;;;;;;;;;;;;;;8.03;100.00;99673.31;5014699;28;866;-64
2023/05/01 02:22:27;;;;;;;;;;;;;;;7.87;100.00;99684.63;5032417;28;803;-64
2023/05/01 02:24:56;;;;;;;;;;;;;;;7.69;100.00;99676.31;5032143;28;850;-64
2023/05/01 02:27:31;;;;;;;;;;;;;;;7.55;100.00;99682.50;5032118;28;1978;-63
2023/05/01 02:29:57;;;;;;;;;;;;;;;7.49;100.00;99678.53;5032177;28;800;-64
2023/05/01 02:32:25;;;;;;;;;;;;;;;7.60;100.00;99682.16;5031891;28;807;-64
2023/05/01 02:34:53;;;;;;;;;;;;;;;7.74;100.00;99684.97;5031767;28;823;-64
2023/05/01 02:37:19;;;;;;;;;;;;;;;7.73;100.00;99685.38;5031825;28;803;-64
2023/05/01 02:39:47;;;;;;;;;;;;;;;7.76;100.00;99681.84;5030892;28;845;-64
2023/05/01 02:42:15;;;;;;;;;;;;;;;7.94;100.00;99693.72;5031707;28;858;-64
2023/05/01 02:44:45;;;;;;;;;;;;;;;8.00;100.00;99702.41;5032029;28;827;-64
2023/05/01 02:47:15;;;;;;;;;;;;;;;8.01;100.00;99692.94;5031519;28;1894;-64
2023/05/01 02:49:42;;;;;;;;;;;;;;;8.05;100.00;99703.97;5031678;28;831;-64
2023/05/01 02:52:11;;;;;;;;;;;;;;;8.14;100.00;99704.41;5031412;28;962;-63
2023/05/01 02:54:39;;;;;;;;;;;;;;;8.21;100.00;99700.88;5030611;28;816;-63
2023/05/01 02:57:05;;;;;;;;;;;;;;;8.29;100.00;99703.25;5031719;28;827;-63
2023/05/01 02:59:32;;;;;;;;;;;;;;;8.33;100.00;99709.56;5032202;28;817;-63
2023/05/01 03:02:00;;;;;;;;;;;;;;;8.30;100.00;99710.34;5031683;28;833;-63
2023/05/01 03:04:27;;;;;;;;;;;;;;;8.31;100.00;99720.19;5031818;28;857;-63
2023/05/01 03:06:53;;;;;;;;;;;;;;;8.29;100.00;99721.75;5031843;28;1894;-63
2023/05/01 03:09:21;;;;;;;;;;;;;;;8.20;100.00;99724.09;5032306;28;986;-63
2023/05/01 03:11:48;;;;;;;;;;;;;;;8.16;100.00;99726.81;5031431;28;1353;-63
2023/05/01 03:14:14;;;;;;;;;;;;;;;8.15;100.00;99725.22;5031540;28;869;-64
2023/05/01 03:16:43;;;;;;;;;;;;;;;8.24;100.00;99731.19;5032188;28;850;-63
2023/05/01 03:19:10;;;;;;;;;;;;;;;8.51;100.00;99736.38;5031723;28;834;-64
2023/05/01 03:21:36;;;;;;;;;;;;;;;8.76;100.00;99734.47;5031474;28;854;-63
2023/05/01 03:24:03;;;;;;;;;;;;;;;8.95;100.00;99730.56;5031604;28;814;-63
2023/05/01 03:26:31;;;;;;;;;;;;;;;9.15;100.00;99732.91;5031523;28;1986;-63
2023/05/01 03:28:58;;;;;;;;;;;;;;;9.42;100.00;99740.78;5031468;28;873;-63
2023/05/01 03:31:25;;;;;;;;;;;;;;;9.60;100.00;99745.09;5031464;28;811;-63
2023/05/01 03:33:52;;;;;;;;;;;;;;;9.42;100.00;99746.31;5031338;28;839;-64
2023/05/01 03:36:18;;;;;;;;;;;;;;;8.95;100.00;99749.06;5031344;28;862;-63
2023/05/01 03:38:46;;;;;;;;;;;;;;;8.60;100.00;99758.88;5031779;28;850;-64
2023/05/01 03:41:13;;;;;;;;;;;;;;;8.41;100.00;99759.19;5031301;28;958;-64
2023/05/01 03:43:40;;;;;;;;;;;;;;;8.34;100.00;99765.41;5031395;28;818;-63
2023/05/01 03:46:06;;;;;;;;;;;;;;;8.30;100.00;99768.19;5031206;28;1890;-63
2023/05/01 03:48:33;;;;;;;;;;;;;;;8.29;100.00;99766.59;5031366;28;877;-64
2023/05/01 03:51:00;;;;;;;;;;;;;;;8.34;100.00;99765.41;5032147;28;873;-62
2023/05/01 03:53:27;;;;;;;;;;;;;;;8.41;100.00;99783.97;5035066;28;830;-63
2023/05/01 03:55:54;;;;;;;;;;;;;;;8.48;100.00;99773.00;5035020;28;795;-63
2023/05/01 03:58:21;;;;;;;;;;;;;;;8.61;100.00;99778.94;5035197;28;877;-64
2023/05/01 04:00:48;;;;;;;;;;;;;;;8.80;100.00;99781.34;5035108;28;843;-63
2023/05/01 04:03:14;;;;;;;;;;;;;;;9.04;100.00;99785.28;5035074;28;889;-64
2023/05/01 04:05:40;;;;;;;;;;;;;;;9.27;100.00;99786.91;5034941;28;1885;-63
2023/05/01 04:08:07;;;;;;;;;;;;;;;9.47;100.00;99799.09;5034549;28;874;-63
2023/05/01 04:10:34;;;;;;;;;;;;;;;9.63;100.00;99795.16;5034393;28;1239;-64
2023/05/01 04:13:01;;;;;;;;;;;;;;;9.75;100.00;99800.25;5034412;28;960;-64
2023/05/01 04:15:28;;;;;;;;;;;;;;;9.87;100.00;99799.06;5034380;28;803;-64
2023/05/01 04:17:55;;;;;;;;;;;;;;;9.97;100.00;99806.53;5034392;28;826;-64
2023/05/01 04:20:22;;;;;;;;;;;;;;;10.00;100.00;99800.97;5034273;28;823;-65
2023/05/01 04:22:49;;;;;;;;;;;;;;;9.99;100.00;99802.19;5034192;28;850;-64
2023/05/01 04:25:16;;;;;;;;;;;;;;;10.13;100.00;99809.63;5034067;28;1969;-65
2023/05/01 04:27:42;;;;;;;;;;;;;;;10.26;100.00;99807.22;5034178;28;835;-63
2023/05/01 04:30:07;;;;;;;;;;;;;;;10.37;100.00;99799.72;5034122;28;858;-64
2023/05/01 04:32:35;;;;;;;;;;;;;;;10.44;100.00;99795.34;5034082;28;869;-64
2023/05/01 04:35:01;;;;;;;;;;;;;;;10.43;100.00;99800.06;5033941;28;901;-63
2023/05/01 04:37:28;;;;;;;;;;;;;;;10.41;100.00;99802.44;5034000;28;799;-64
2023/05/01 04:39:55;;;;;;;;;;;;;;;10.33;100.00;99807.22;5033938;28;885;-64
2023/05/01 04:42:22;;;;;;;;;;;;;;;10.27;100.00;99806.03;5016058;28;1295;-64
2023/05/01 04:44:49;;;;;;;;;;;;;;;10.19;100.00;99802.50;5033903;28;858;-65
2023/05/01 04:47:16;;;;;;;;;;;;;;;10.17;100.00;99809.63;5033728;28;1949;-64
2023/05/01 04:49:43;;;;;;;;;;;;;;;10.27;100.00;99808.03;5033784;28;802;-63
2023/05/01 04:52:09;;;;;;;;;;;;;;;10.43;100.00;99808.38;5033659;28;878;-63
2023/05/01 04:54:36;;;;;;;;;;;;;;;10.73;100.00;99812.56;5033714;28;838;-63
2023/05/01 04:57:03;;;;;;;;;;;;;;;11.08;100.00;99816.31;5033610;28;775;-64
2023/05/01 04:59:29;;;;;;;;;;;;;;;11.49;100.00;99818.38;5033658;28;814;-63
2023/05/01 05:01:55;;;;;;;;;;;;;;;11.84;100.00;99828.34;5033349;28;815;-63
2023/05/01 05:04:22;;;;;;;;;;;;;;;12.13;100.00;99822.53;5015047;28;1165;-64
2023/05/01 05:06:51;;;;;;;;;;;;;;;12.39;100.00;99823.81;5033397;28;1886;-64
2023/05/01 05:09:18;;;;;;;;;;;;;;;12.51;100.00;99830.81;5033513;28;891;-64
2023/05/01 05:11:44;;;;;;;;;;;;;;;12.57;100.00;99840.25;5033093;28;1203;-64
2023/05/01 05:14:11;;;;;;;;;;;;;;;12.70;100.00;99832.94;5033191;28;839;-64
2023/05/01 05:16:37;;;;;;;;;;;;;;;12.93;100.00;99846.13;5033283;28;819;-64
2023/05/01 05:19:04;;;;;;;;;;;;;;;13.17;100.00;99846.19;5033158;28;855;-64
2023/05/01 05:21:31;;;;;;;;;;;;;;;13.35;100.00;99843.94;5033015;28;855;-63
2023/05/01 05:23:58;;;;;;;;;;;;;;;13.51;100.00;99848.84;5033090;28;943;-64
2023/05/01 05:26:25;;;;;;;;;;;;;;;13.55;100.00;99849.59;5033063;28;1910;-64
2023/05/01 05:28:54;;;;;;;;;;;;;;;13.63;100.00;99853.81;5033004;28;864;-64
2023/05/01 05:31:20;;;;;;;;;;;;;;;13.58;100.00;99859.84;5032995;28;831;-63
2023/05/01 05:33:46;;;;;;;;;;;;;;;13.50;100.00;99866.69;5032931;28;806;-63
2023/05/01 05:36:13;;;;;;;;;;;;;;;13.53;100.00;99868.66;5033087;28;878;-63
2023/05/01 05:38:39;;;;;;;;;;;;;;;13.49;100.00;99870.69;5032881;28;882;-63
2023/05/01 05:41:11;;;;;;;;;;;;;;;13.53;100.00;99870.63;5032873;28;815;-63
2023/05/01 05:43:38;;;;;;;;;;;;;;;13.65;100.00;99881.91;5032672;28;842;-62
2023/05/01 05:46:06;;;;;;;;;;;;;;;13.80;100.00;99887.25;5032585;28;1914;-62
2023/05/01 05:48:32;;;;;;;;;;;;;;;13.94;100.00;99889.03;5032644;28;799;-63
2023/05/01 05:50:59;;;;;;;;;;;;;;;14.13;100.00;99893.06;5032467;28;811;-62
2023/05/01 05:53:26;;;;;;;;;;;;;;;14.27;100.00;99901.13;5014884;28;1734;-64
2023/05/01 05:55:52;;;;;;;;;;;;;;;14.51;100.00;99907.44;5031138;28;1393;-63
2023/05/01 05:58:20;;;;;;;;;;;;;;;14.75;100.00;99905.41;5032492;28;917;-63
2023/05/01 06:00:47;;;;;;;;;;;;;;;14.99;100.00;99916.44;5032443;28;818;-63
2023/05/01 06:03:13;;;;;;;;;;;;;;;15.21;100.00;99916.75;5032272;28;847;-63
2023/05/01 06:05:41;;;;;;;;;;;;;;;15.34;100.00;99914.88;5032232;28;1889;-63
2023/05/01 06:08:09;;;;;;;;;;;;;;;15.43;100.00;99917.06;5032294;28;807;-63
2023/05/01 06:10:38;;;;;;;;;;;;;;;15.49;100.00;99921.69;5031879;28;1273;-63
2023/05/01 06:13:07;;;;;;;;;;;;;;;15.50;100.00;99925.25;5032227;28;846;-63
2023/05/01 06:15:35;;;;;;;;;;;;;;;15.54;100.00;99923.16;5032238;28;839;-63
2023/05/01 06:18:02;;;;;;;;;;;;;;;15.60;100.00;99931.81;5032036;28;831;-64
2023/05/01 06:20:29;;;;;;;;;;;;;;;15.80;100.00;99928.97;5032004;28;905;-63
2023/05/01 06:22:56;;;;;;;;;;;;;;;15.92;100.00;99929.03;5032028;28;834;-63
2023/05/01 06:25:23;;;;;;;;;;;;;;;16.08;100.00;99939.38;5031947;28;1918;-62
2023/05/01 06:27:51;;;;;;;;;;;;;;;16.32;100.00;99933.59;5032003;28;870;-63
2023/05/01 06:30:20;;;;;;;;;;;;;;;16.62;100.00;99939.97;5031916;28;799;-62
2023/05/01 06:32:48;;;;;;;;;;;;;;;16.94;100.00;99939.91;5031934;28;894;-63
2023/05/01 06:35:14;;;;;;;;;;;;;;;17.34;100.00;99947.13;5031844;28;846;-62
2023/05/01 06:37:41;;;;;;;;;;;;;;;17.78;100.00;99938.97;5031793;28;819;-63
2023/05/01 06:40:08;;;;;;;;;;;;;;;18.00;100.00;99943.88;5014053;28;840;-64
2023/05/01 06:42:38;;;;;;;;;;;;;;;18.11;100.00;99947.09;5031782;28;810;-63
2023/05/01 06:45:09;;;;;;;;;;;;;;;18.01;100.00;99949.03;5031788;28;810;-64
2023/05/01 06:47:36;;;;;;;;;;;;;;;17.89;100.00;99956.19;5031786;28;838;-64
2023/05/01 06:50:03;;;;;;;;;;;;;;;18.26;100.00;99947.41;5031511;28;946;-64
2023/05/01 06:52:30;;;;;;;;;;;;;;;18.43;98.30;99956.41;5031599;28;881;-63
2023/05/01 06:54:59;;;;;;;;;;;;;;;18.59;95.81;99959.03;5031624;28;826;-63
2023/05/01 06:57:25;;;;;;;;;;;;;;;19.25;92.71;99964.66;5031672;28;810;-63
2023/05/01 06:59:52;;;;;;;;;;;;;;;20.04;88.62;99960.81;5031556;28;823;-63
2023/05/01 07:02:18;;;;;;;;;;;;;;;20.76;83.96;99964.16;5031561;28;843;-63
2023/05/01 07:04:45;;;;;;;;;;;;;;;21.10;78.33;99959.41;5031542;28;885;-63
2023/05/01 07:07:12;;;;;;;;;;;;;;;21.00;76.36;99962.25;5030052;28;1949;-64
2023/05/01 07:09:39;;;;;;;;;;;;;;;21.24;71.40;99967.19;5031832;28;920;-65
2023/05/01 07:12:05;;;;;;;;;;;;;;;21.78;70.25;99970.31;5031245;28;1347;-63
2023/05/01 07:14:33;;;;;;;;;;;;;;;22.64;68.55;99968.88;5031395;28;858;-64
2023/05/01 07:17:01;;;;;;;;;;;;;;;24.77;60.27;99973.47;5031422;28;866;-65
2023/05/01 07:19:27;;;;;;;;;;;;;;;25.03;55.79;99976.31;5031248;28;873;-65
2023/05/01 07:21:54;;;;;;;;;;;;;;;24.52;55.31;99983.47;5031339;28;889;-65
2023/05/01 07:24:21;;;;;;;;;;;;;;;24.34;54.23;99975.22;5031296;28;870;-65
2023/05/01 07:26:47;;;;;;;;;;;;;;;23.79;56.36;99997.31;5033311;28;1906;-65
2023/05/01 07:29:15;;;;;;;;;;;;;;;23.21;57.15;99996.88;5035430;28;807;-65
2023/05/01 07:31:42;;;;;;;;;;;;;;;22.82;56.08;99993.28;5035307;28;925;-64
2023/05/01 07:34:09;;;;;;;;;;;;;;;22.33;52.33;100005.84;5035256;28;818;-66
2023/05/01 07:36:36;;;;;;;;;;;;;;;22.16;50.45;100003.41;5035087;28;815;-66
2023/05/01 07:39:03;;;;;;;;;;;;;;;21.95;46.61;100008.06;5035091;28;857;-66
2023/05/01 07:41:30;;;;;;;;;;;;;;;21.60;44.08;100011.31;5035020;28;803;-66
2023/05/01 07:44:00;;;;;;;;;;;;;;;21.51;42.92;100014.19;5034957;28;827;-65
2023/05/01 07:46:27;;;;;;;;;;;;;;;21.49;40.77;100021.53;5017207;28;1969;-66
2023/05/01 07:48:53;;;;;;;;;;;;;;;21.33;39.65;100019.81;5034781;28;827;-67
2023/05/01 07:51:20;;;;;;;;;;;;;;;21.65;38.99;100015.53;5034904;28;818;-66
2023/05/01 07:53:48;;;;;;;;;;;;;;;21.81;40.44;100015.16;5034730;28;858;-65
2023/05/01 07:56:15;;;;;;;;;;;;;;;22.45;40.78;100016.09;5034776;28;851;-65
2023/05/01 07:58:42;;;;;;;;;;;;;;;24.38;37.15;100018.16;5034644;28;855;-65
2023/05/01 08:01:09;;;;;;;;;;;;;;;25.22;32.20;100016.38;5034681;28;819;-65
2023/05/01 08:03:36;;;;;;;;;;;;;;;26.21;29.47;100016.13;5034663;28;870;-66
2023/05/01 08:06:03;;;;;;;;;;;;;;;25.94;30.16;100013.88;5034469;28;1944;-67
2023/05/01 08:08:30;;;;;;;;;;;;;;;26.96;27.93;100015.94;5034523;28;994;-67
2023/05/01 08:10:56;;;;;;;;;;;;;;;27.01;27.44;100020.06;5034450;28;1178;-65
2023/05/01 08:13:22;;;;;;;;;;;;;;;25.46;28.15;100024.56;5034350;28;877;-65
2023/05/01 08:15:48;;;;;;;;;;;;;;;24.69;28.26;100023.22;5034728;28;867;-66
2023/05/01 08:18:19;;;;;;;;;;;;;;;24.89;29.08;100022.41;5034260;28;827;-65
2023/05/01 08:20:46;;;;;;;;;;;;;;;24.86;28.34;100027.00;5034326;28;862;-65
2023/05/01 08:23:14;;;;;;;;;;;;;;;24.72;27.63;100038.41;5034244;28;811;-64
2023/05/01 08:25:41;;;;;;;;;;;;;;;23.71;28.37;100032.81;5034170;28;1914;-65
2023/05/01 08:28:07;;;;;;;;;;;;;;;22.53;30.97;100036.22;5034134;28;784;-65
2023/05/01 08:30:34;;;;;;;;;;;;;;;22.34;31.65;100038.38;5034090;28;886;-65
2023/05/01 08:33:01;;;;;;;;;;;;;;;24.01;29.80;100021.50;5034121;28;810;-65
2023/05/01 08:35:27;;;;;;;;;;;;;;;25.18;28.41;100029.94;5033996;28;826;-63
2023/05/01 08:37:55;;;;;;;;;;;;;;;26.07;27.68;100034.84;5032712;28;911;-66
2023/05/01 08:40:22;;;;;;;;;;;;;;;26.31;28.55;100033.69;5033947;28;807;-65
2023/05/01 08:42:48;;;;;;;;;;;;;;;25.93;28.04;100032.16;5033925;28;878;-66
2023/05/01 08:45:15;;;;;;;;;;;;;;;26.13;27.54;100029.19;5033739;28;1901;-66
2023/05/01 08:47:43;;;;;;;;;;;;;;;26.78;27.78;100033.41;5033762;28;870;-65
2023/05/01 08:50:13;;;;;;;;;;;;;;;27.64;27.03;100031.00;5033719;28;896;-65
2023/05/01 08:52:43;;;;;;;;;;;;;;;28.33;27.08;100026.03;5033798;28;862;-64
2023/05/01 08:55:13;;;;;;;;;;;;;;;28.67;25.82;100027.47;5033962;28;771;-65
2023/05/01 08:57:48;;;;;;;;;;;;;;;28.00;25.64;100031.28;5033624;28;851;-64
2023/05/01 09:00:18;;;;;;;;;;;;;;;27.12;26.30;100034.28;5033615;28;875;-65
2023/05/01 09:02:47;;;;;;;;;;;;;;;26.56;27.60;100034.84;5033539;28;814;-68
2023/05/01 09:05:14;;;;;;;;;;;;;;;27.03;28.25;100034.50;5033468;28;842;-67
2023/05/01 09:07:42;;;;;;;;;;;;;;;27.45;28.75;100022.22;5033498;28;799;-66
2023/05/01 09:10:10;;;;;;;;;;;;;;;28.12;27.81;100026.31;5033385;28;1175;-66
2023/05/01 09:12:38;;;;;;;;;;;;;;;28.43;26.12;100018.75;5033369;28;831;-64
2023/05/01 09:15:06;;;;;;;;;;;;;;;28.19;26.90;100020.13;5033338;28;846;-65
2023/05/01 09:17:33;;;;;;;;;;;;;;;27.32;27.92;100026.88;5033454;28;1006;-66
2023/05/01 09:20:01;;;;;;;;;;;;;;;27.52;27.68;100028.69;5033498;28;874;-64
2023/05/01 09:22:29;;;;;;;;;;;;;;;27.58;26.65;100026.63;5033342;28;895;-64
2023/05/01 09:24:56;;;;;;;;;;;;;;;27.38;27.90;100024.81;5033171;28;858;-66
2023/05/01 09:27:23;;;;;;;;;;;;;;;26.95;26.76;100025.75;5033008;28;1922;-67
2023/05/01 09:29:49;;;;;;;;;;;;;;;25.98;28.76;100029.34;5033037;28;865;-66
2023/05/01 09:32:16;;;;;;;;;;;;;;;25.38;28.78;100026.28;5033114;28;815;-68
2023/05/01 09:34:43;;;;;;;;;;;;;;;24.72;29.71;100032.75;5033058;28;982;-66
2023/05/01 09:37:12;;;;;;;;;;;;;;;25.10;28.80;100036.53;5033051;28;875;-66
2023/05/01 10:10:43;;;;;;;;;;;;;;;22.75;32.49;100047.97;5251527;22;1691;-57
2023/05/01 10:13:16;;;;;;;;;;;;;;;23.00;32.96;100045.88;5052116;28;876;-57
2023/05/01 10:15:45;;;;;;;;;;;;;;;23.01;32.89;100041.84;5052135;28;834;-57
2023/05/01 10:18:13;;;;;;;;;;;;;;;23.01;33.06;100036.19;5051962;28;878;-57
2023/05/01 10:20:39;;;;;;;;;;;;;;;23.08;32.83;100043.50;5052037;28;850;-57
2023/05/01 10:23:06;;;;;;;;;;;;;;;24.03;31.96;100031.03;5051997;28;889;-56
2023/05/01 10:25:35;;;;;;;;;;;;;;;24.83;31.97;100032.88;5051790;28;1906;-56
2023/05/01 10:28:05;;;;;;;;;;;;;;;25.10;31.11;100036.53;5051824;28;1101;-52
2023/05/01 10:30:31;;;;;;;;;;;;;;;24.98;31.34;100030.72;5051871;28;818;-55
2023/05/01 10:32:58;;;;;;;;;;;;;;;25.29;31.86;100026.47;5051848;28;849;-56
2023/05/01 10:35:32;;;;;;;;;;;;;;;25.79;30.36;100042.31;5051807;28;834;-56
2023/05/01 10:37:58;;;;;;;;;;;;;;;26.13;29.22;100029.19;5051747;28;814;-56
2023/05/01 10:40:40;;;;;;;;;;;;;;;26.27;29.28;100036.00;5051684;28;833;-54
2023/05/01 10:43:16;;;;;;;;;;;;;;;26.30;28.82;100032.13;5051625;28;969;-56
2023/05/01 10:45:46;;;;;;;;;;;;;;;25.63;28.54;100029.59;5051546;28;1910;-56
2023/05/01 10:48:31;;;;;;;;;;;;;;;25.93;28.96;100032.16;5051884;28;834;-56
2023/05/01 10:51:13;;;;;;;;;;;;;;;25.93;28.61;100043.50;5050308;28;1219;-56
2023/05/01 10:53:40;;;;;;;;;;;;;;;26.04;28.74;100035.84;5051811;28;857;-56
2023/05/01 10:56:25;;;;;;;;;;;;;;;26.26;28.25;100038.03;5051526;28;932;-56
2023/05/01 10:58:52;;;;;;;;;;;;;;;26.80;28.03;100033.66;5051561;28;826;-56
2023/05/01 11:01:32;;;;;;;;;;;;;;;27.22;28.03;100032.78;5050753;28;818;-56
2023/05/01 11:04:03;;;;;;;;;;;;;;;27.51;27.34;100039.25;5051426;28;871;-57
2023/05/01 11:06:30;;;;;;;;;;;;;;;27.37;27.59;100031.75;5051370;28;1890;-57
2023/05/01 11:08:56;;;;;;;;;;;;;;;27.49;26.12;100036.94;5051388;28;913;-57
2023/05/01 11:11:26;;;;;;;;;;;;;;;27.06;26.18;100044.84;5051089;28;1369;-57
2023/05/01 11:13:58;;;;;;;;;;;;;;;26.97;26.35;100043.03;5051403;28;870;-56
2023/05/01 11:16:43;;;;;;;;;;;;;;;26.76;26.21;100044.50;5051311;28;810;-57
2023/05/01 11:19:10;;;;;;;;;;;;;;;27.00;26.53;100044.06;5051335;28;862;-56
2023/05/01 11:21:38;;;;;;;;;;;;;;;26.94;25.54;100044.03;5051532;28;791;-56
2023/05/01 11:24:05;;;;;;;;;;;;;;;27.34;26.00;100036.41;5051498;28;819;-57
2023/05/01 11:26:31;;;;;;;;;;;;;;;27.09;24.39;100052.31;5051164;28;1906;-57
2023/05/01 11:29:00;;;;;;;;;;;;;;;27.30;25.93;100041.56;5051195;28;885;-57
2023/05/01 11:31:27;;;;;;;;;;;;;;;27.41;25.25;100044.41;5051138;28;898;-57
2023/05/01 11:33:56;;;;;;;;;;;;;;;27.55;25.14;100039.78;5051085;28;854;-57
2023/05/01 11:36:22;;;;;;;;;;;;;;;27.00;23.37;100041.97;5051136;28;819;-57
2023/05/01 11:38:55;;;;;;;;;;;;;;;26.67;24.85;100046.25;5050998;28;838;-57
2023/05/01 11:41:22;;;;;;;;;;;;;;;27.19;25.15;100033.00;5051036;28;798;-57
2023/05/01 11:43:52;;;;;;;;;;;;;;;27.24;24.86;100035.88;5051132;28;774;-57
2023/05/01 11:46:26;;;;;;;;;;;;;;;27.63;25.57;100037.97;5051124;28;1885;-57
2023/05/01 11:49:00;;;;;;;;;;;;;;;27.79;24.48;100035.66;5051167;28;798;-57
2023/05/01 11:51:27;;;;;;;;;;;;;;;27.71;24.00;100038.22;5050960;28;790;-57
2023/05/01 11:54:02;;;;;;;;;;;;;;;27.41;24.46;100021.69;5051256;28;803;-57
2023/05/01 11:56:30;;;;;;;;;;;;;;;27.74;24.66;100025.84;5050886;28;786;-57
2023/05/01 11:58:57;;;;;;;;;;;;;;;27.88;24.05;100015.53;5050974;28;794;-55
2023/05/01 12:01:34;;;;;;;;;;;;;;;28.06;23.68;100019.91;5050918;28;900;-54
2023/05/01 12:04:01;;;;;;;;;;;;;;;28.79;23.51;100019.66;5051012;28;844;-55
2023/05/01 12:06:39;;;;;;;;;;;;;;;29.31;22.88;100024.53;5050810;28;1886;-55
2023/05/01 12:09:07;;;;;;;;;;;;;;;29.96;22.14;100015.72;5050837;28;915;-55
2023/05/01 12:11:34;;;;;;;;;;;;;;;30.31;22.17;100017.72;5050763;28;1347;-55
2023/05/01 12:14:01;;;;;;;;;;;;;;;30.28;21.53;100022.44;5036673;28;1341;-55
2023/05/01 12:16:28;;;;;;;;;;;;;;;30.18;21.24;100018.34;5054417;28;865;-55
2023/05/01 12:18:55;;;;;;;;;;;;;;;30.01;21.65;100017.75;5054286;28;854;-55
2023/05/01 12:21:24;;;;;;;;;;;;;;;30.18;21.84;100014.75;5054287;28;838;-55
2023/05/01 12:23:50;;;;;;;;;;;;;;;29.73;21.94;100020.88;5054295;28;814;-54
2023/05/01 12:26:24;;;;;;;;;;;;;;;29.57;22.33;100019.69;5054068;28;1975;-55
2023/05/01 12:28:53;;;;;;;;;;;;;;;29.95;22.14;100022.75;5054126;28;848;-55
2023/05/01 12:31:20;;;;;;;;;;;;;;;29.08;22.04;100029.59;5054043;28;858;-55
2023/05/01 12:33:53;;;;;;;;;;;;;;;28.59;21.42;100020.81;5054043;28;885;-55
2023/05/01 12:36:24;;;;;;;;;;;;;;;28.19;22.19;100028.66;5054674;28;830;-55
2023/05/01 12:39:03;;;;;;;;;;;;;;;28.62;21.99;100022.59;5054332;28;885;-54
2023/05/01 12:41:43;;;;;;;;;;;;;;;28.59;22.17;100028.53;5052655;28;829;-54
2023/05/01 12:44:17;;;;;;;;;;;;;;;28.97;21.51;100038.19;5053852;28;806;-54
2023/05/01 12:46:43;;;;;;;;;;;;;;;29.08;21.19;100038.13;5053819;28;1890;-54
2023/05/01 12:49:19;;;;;;;;;;;;;;;28.68;20.87;100039.63;5053926;28;877;-54
2023/05/01 12:51:47;;;;;;;;;;;;;;;28.28;21.45;100036.88;5053789;28;814;-54
2023/05/01 12:54:21;;;;;;;;;;;;;;;27.92;22.28;100049.34;5053633;28;795;-54
2023/05/01 12:56:48;;;;;;;;;;;;;;;27.49;21.73;100045.44;5053957;28;798;-54
2023/05/01 12:59:22;;;;;;;;;;;;;;;27.56;22.64;100037.72;5053602;28;826;-56
2023/05/01 13:01:56;;;;;;;;;;;;;;;27.54;21.96;100049.56;5053472;28;860;-56
2023/05/01 13:04:24;;;;;;;;;;;;;;;27.39;22.62;100041.31;5053547;28;885;-56
2023/05/01 13:06:54;;;;;;;;;;;;;;;27.35;22.06;100045.69;5053207;28;1917;-56
2023/05/01 13:09:25;;;;;;;;;;;;;;;26.99;22.10;100051.00;5053545;28;1015;-57
2023/05/01 13:12:05;;;;;;;;;;;;;;;27.22;22.75;100044.13;5053267;28;933;-57
2023/05/01 13:14:41;;;;;;;;;;;;;;;27.34;22.61;100047.00;5053527;28;934;-57
2023/05/01 13:17:07;;;;;;;;;;;;;;;27.53;22.60;100041.59;5053217;28;794;-56
2023/05/01 13:19:34;;;;;;;;;;;;;;;27.84;22.49;100046.22;5053155;28;798;-57
2023/05/01 13:22:01;;;;;;;;;;;;;;;27.32;21.59;100038.97;5053131;28;901;-57
2023/05/01 13:24:40;;;;;;;;;;;;;;;27.20;21.97;100043.81;5052659;28;877;-57
2023/05/01 13:27:10;;;;;;;;;;;;;;;27.22;21.78;100037.69;5053096;28;1914;-57
2023/05/01 13:29:37;;;;;;;;;;;;;;;26.93;22.07;100047.38;5053052;28;838;-54
2023/05/01 13:32:05;;;;;;;;;;;;;;;26.52;22.56;100059.03;5052969;28;807;-54
2023/05/01 13:34:32;;;;;;;;;;;;;;;25.86;23.23;100051.13;5052878;28;881;-54
2023/05/01 13:37:02;;;;;;;;;;;;;;;25.25;23.30;100043.66;5053031;28;890;-54